PWSweather.com
Personal Weather Stations
Station Observations
SHAHALMS1
Eftra, Falkenberg, HA

EftraFalkenberg, HA

Lat: 56.85, Lon: 12.65

Elevation: 140

Station Type:

http://hem.passagen.se/risarp101

High Low Average
Temperature 65.7°F18.7°C 51.8°F11.0°C 57.8°F14.3°C
Dew Point 53.8°F12.1°C 46.0°F7.8°C 50.0°F10.0°C
Winds 11.2 mph 18.0 kmh 2.4 mph 3.9 kmh 7.0 mph SE11.3 kmh SE
Wind Gusts 21.1 mph34.0 kmh 7.5 mph12.1 kmh 15.0 mph24.1 kmh
Humidity 84% 62% 75%
Pressure 30.12 in1020.0 mb 29.98 in1015.2 mb -
Precipitation 0.00 in0.0 mm - -
Hour Temp Dew Point Humidity Winds Wind Gusts Pressure Precip Precip Rate Daily Precip Total
12:00 AM 54.5°F12.5°C 46.4°F8.0°C 74% 6.2 mph ESE10.0 kmh ESE 15.7 mph25.3 kmh 30.04 in1017.3 mb 0.00 in0.0 mm 0.00 in0.0 mm 0.00 in0.0 mm
12:15 AM 54.7°F12.6°C 46.9°F8.3°C 75% 7.2 mph ESE11.6 kmh ESE 15.7 mph25.3 kmh 30.04 in1017.3 mb 0.00 in0.0 mm 0.00 in0.0 mm 0.00 in0.0 mm
12:30 AM 54.7°F12.6°C 47.3°F8.5°C 76% 5.4 mph SE8.7 kmh SE 15.7 mph25.3 kmh 30.04 in1017.3 mb 0.00 in0.0 mm 0.00 in0.0 mm 0.00 in0.0 mm
12:45 AM 54.9°F12.7°C 47.4°F8.6°C 76% 6.1 mph SE9.8 kmh SE 15.7 mph25.3 kmh 30.04 in1017.3 mb 0.00 in0.0 mm 0.00 in0.0 mm 0.00 in0.0 mm
01:00 AM 54.7°F12.6°C 47.3°F8.5°C 76% 7.1 mph E11.4 kmh E 12.9 mph20.8 kmh 30.04 in1017.3 mb 0.00 in0.0 mm 0.00 in0.0 mm 0.00 in0.0 mm
01:15 AM 54.7°F12.6°C 47.3°F8.5°C 76% 8.0 mph E12.9 kmh E 16.5 mph26.6 kmh 30.04 in1017.3 mb 0.00 in0.0 mm 0.00 in0.0 mm 0.00 in0.0 mm
01:30 AM 54.7°F12.6°C 47.6°F8.7°C 77% 8.5 mph ESE13.7 kmh ESE 19.0 mph30.6 kmh 30.04 in1017.3 mb 0.00 in0.0 mm 0.00 in0.0 mm 0.00 in0.0 mm
01:45 AM 54.7°F12.6°C 47.6°F8.7°C 77% 6.3 mph ESE10.1 kmh ESE 16.5 mph26.6 kmh 30.04 in1017.3 mb 0.00 in0.0 mm 0.00 in0.0 mm 0.00 in0.0 mm
02:00 AM 54.5°F12.5°C 47.4°F8.6°C 77% 7.5 mph E12.1 kmh E 14.3 mph23.0 kmh 30.01 in1016.3 mb 0.00 in0.0 mm 0.00 in0.0 mm 0.00 in0.0 mm
02:15 AM 54.3°F12.4°C 47.3°F8.5°C 77% 4.2 mph E6.8 kmh E 10.4 mph16.7 kmh 30.01 in1016.3 mb 0.00 in0.0 mm 0.00 in0.0 mm 0.00 in0.0 mm
02:30 AM 54.3°F12.4°C 47.6°F8.7°C 78% 7.0 mph E11.3 kmh E 15.4 mph24.8 kmh 30.01 in1016.3 mb 0.00 in0.0 mm 0.00 in0.0 mm 0.00 in0.0 mm
02:45 AM 54.3°F12.4°C 47.6°F8.7°C 78% 7.2 mph E11.6 kmh E 18.3 mph29.5 kmh 30.01 in1016.3 mb 0.00 in0.0 mm 0.00 in0.0 mm 0.00 in0.0 mm
03:00 AM 54.3°F12.4°C 47.6°F8.7°C 78% 9.3 mph ESE15.0 kmh ESE 20.4 mph32.8 kmh 30.01 in1016.3 mb 0.00 in0.0 mm 0.00 in0.0 mm 0.00 in0.0 mm
03:15 AM 54.0°F12.2°C 47.3°F8.5°C 78% 8.7 mph ESE14.0 kmh ESE 14.0 mph22.5 kmh 30.01 in1016.3 mb 0.00 in0.0 mm 0.00 in0.0 mm 0.00 in0.0 mm
03:30 AM 53.8°F12.1°C 47.1°F8.4°C 78% 8.3 mph SE13.4 kmh SE 14.0 mph22.5 kmh 30.01 in1016.3 mb 0.00 in0.0 mm 0.00 in0.0 mm 0.00 in0.0 mm
03:45 AM 53.6°F12.0°C 46.9°F8.3°C 78% 8.0 mph SE12.9 kmh SE 16.8 mph27.0 kmh 30.01 in1016.3 mb 0.00 in0.0 mm 0.00 in0.0 mm 0.00 in0.0 mm
04:00 AM 53.6°F12.0°C 47.2°F8.4°C 79% 9.3 mph ESE15.0 kmh ESE 16.8 mph27.0 kmh 30.01 in1016.3 mb 0.00 in0.0 mm 0.00 in0.0 mm 0.00 in0.0 mm
04:15 AM 53.2°F11.8°C 46.9°F8.3°C 79% 8.3 mph E13.4 kmh E 13.6 mph21.9 kmh 30.04 in1017.3 mb 0.00 in0.0 mm 0.00 in0.0 mm 0.00 in0.0 mm
04:30 AM 52.9°F11.6°C 46.5°F8.1°C 79% 9.8 mph ESE15.8 kmh ESE 17.2 mph27.7 kmh 30.01 in1016.3 mb 0.00 in0.0 mm 0.00 in0.0 mm 0.00 in0.0 mm
04:45 AM 52.7°F11.5°C 46.4°F8.0°C 79% 8.9 mph ESE14.3 kmh ESE 15.7 mph25.3 kmh 30.01 in1016.3 mb 0.00 in0.0 mm 0.00 in0.0 mm 0.00 in0.0 mm
05:00 AM 52.3°F11.3°C 46.0°F7.8°C 79% 9.0 mph E14.5 kmh E 16.5 mph26.6 kmh 30.01 in1016.3 mb 0.00 in0.0 mm 0.00 in0.0 mm 0.00 in0.0 mm
05:15 AM 52.2°F11.2°C 46.2°F7.9°C 80% 8.5 mph E13.7 kmh E 12.9 mph20.8 kmh 29.98 in1015.2 mb 0.00 in0.0 mm 0.00 in0.0 mm 0.00 in0.0 mm
05:30 AM 52.0°F11.1°C 46.0°F7.8°C 80% 6.2 mph ESE10.0 kmh ESE 10.7 mph17.2 kmh 30.01 in1016.3 mb 0.00 in0.0 mm 0.00 in0.0 mm 0.00 in0.0 mm
05:45 AM 52.0°F11.1°C 46.3°F7.9°C 81% 7.9 mph E12.7 kmh E 13.6 mph21.9 kmh 30.01 in1016.3 mb 0.00 in0.0 mm 0.00 in0.0 mm 0.00 in0.0 mm
06:00 AM 51.8°F11.0°C 46.2°F7.9°C 81% 4.5 mph E7.2 kmh E 12.2 mph19.6 kmh 30.01 in1016.3 mb 0.00 in0.0 mm 0.00 in0.0 mm 0.00 in0.0 mm
06:15 AM 52.0°F11.1°C 46.7°F8.2°C 82% 8.8 mph ESE14.2 kmh ESE 19.7 mph31.7 kmh 29.98 in1015.2 mb 0.00 in0.0 mm 0.00 in0.0 mm 0.00 in0.0 mm
06:30 AM 52.0°F11.1°C 46.7°F8.2°C 82% 7.8 mph E12.6 kmh E 16.5 mph26.6 kmh 29.98 in1015.2 mb 0.00 in0.0 mm 0.00 in0.0 mm 0.00 in0.0 mm
06:46 AM 52.2°F11.2°C 47.2°F8.4°C 83% 7.5 mph ESE12.1 kmh ESE 14.0 mph22.5 kmh 30.01 in1016.3 mb 0.00 in0.0 mm 0.00 in0.0 mm 0.00 in0.0 mm
07:00 AM 52.3°F11.3°C 47.3°F8.5°C 83% 7.5 mph ESE12.1 kmh ESE 16.8 mph27.0 kmh 30.01 in1016.3 mb 0.00 in0.0 mm 0.00 in0.0 mm 0.00 in0.0 mm
07:15 AM 52.5°F11.4°C 47.5°F8.6°C 83% 6.9 mph ESE11.1 kmh ESE 16.1 mph25.9 kmh 30.01 in1016.3 mb 0.00 in0.0 mm 0.00 in0.0 mm 0.00 in0.0 mm
07:30 AM 52.9°F11.6°C 48.2°F9.0°C 84% 6.8 mph E10.9 kmh E 10.4 mph16.7 kmh 30.01 in1016.3 mb 0.00 in0.0 mm 0.00 in0.0 mm 0.00 in0.0 mm
07:45 AM 53.4°F11.9°C 48.7°F9.3°C 84% 7.5 mph ESE12.1 kmh ESE 17.2 mph27.7 kmh 30.01 in1016.3 mb 0.00 in0.0 mm 0.00 in0.0 mm 0.00 in0.0 mm
08:00 AM 53.8°F12.1°C 49.1°F9.5°C 84% 9.7 mph ESE15.6 kmh ESE 17.5 mph28.2 kmh 30.01 in1016.3 mb 0.00 in0.0 mm 0.00 in0.0 mm 0.00 in0.0 mm
08:15 AM 54.3°F12.4°C 49.6°F9.8°C 84% 8.6 mph SE13.8 kmh SE 16.1 mph25.9 kmh 30.01 in1016.3 mb 0.00 in0.0 mm 0.00 in0.0 mm 0.00 in0.0 mm
08:30 AM 54.9°F12.7°C 50.1°F10.1°C 84% 9.0 mph ESE14.5 kmh ESE 19.3 mph31.1 kmh 30.04 in1017.3 mb 0.00 in0.0 mm 0.00 in0.0 mm 0.00 in0.0 mm
08:45 AM 55.4°F13.0°C 50.3°F10.2°C 83% 11.2 mph ESE18.0 kmh ESE 21.1 mph34.0 kmh 30.04 in1017.3 mb 0.00 in0.0 mm 0.00 in0.0 mm 0.00 in0.0 mm
09:00 AM 55.9°F13.3°C 50.9°F10.5°C 83% 10.1 mph ESE16.3 kmh ESE 20.4 mph32.8 kmh 30.07 in1018.3 mb 0.00 in0.0 mm 0.00 in0.0 mm 0.00 in0.0 mm
09:15 AM 56.7°F13.7°C 51.2°F10.7°C 82% 4.4 mph E7.1 kmh E 14.0 mph22.5 kmh 30.04 in1017.3 mb 0.00 in0.0 mm 0.00 in0.0 mm 0.00 in0.0 mm
09:30 AM 57.2°F14.0°C 51.8°F11.0°C 82% 6.8 mph E10.9 kmh E 12.5 mph20.1 kmh 30.01 in1016.3 mb 0.00 in0.0 mm 0.00 in0.0 mm 0.00 in0.0 mm
09:45 AM 57.7°F14.3°C 51.9°F11.1°C 81% 8.5 mph ESE13.7 kmh ESE 15.7 mph25.3 kmh 30.04 in1017.3 mb 0.00 in0.0 mm 0.00 in0.0 mm 0.00 in0.0 mm
10:00 AM 58.5°F14.7°C 52.3°F11.3°C 80% 9.2 mph ESE14.8 kmh ESE 15.7 mph25.3 kmh 30.04 in1017.3 mb 0.00 in0.0 mm 0.00 in0.0 mm 0.00 in0.0 mm
10:15 AM 59.2°F15.1°C 52.7°F11.5°C 79% 7.2 mph SE11.6 kmh SE 17.2 mph27.7 kmh 30.04 in1017.3 mb 0.00 in0.0 mm 0.00 in0.0 mm 0.00 in0.0 mm
10:30 AM 60.1°F15.6°C 53.2°F11.8°C 78% 8.8 mph SE14.2 kmh SE 20.0 mph32.2 kmh 30.04 in1017.3 mb 0.00 in0.0 mm 0.00 in0.0 mm 0.00 in0.0 mm
10:45 AM 60.6°F15.9°C 53.4°F11.9°C 77% 8.1 mph ESE13.0 kmh ESE 16.5 mph26.6 kmh 30.04 in1017.3 mb 0.00 in0.0 mm 0.00 in0.0 mm 0.00 in0.0 mm
11:00 AM 61.2°F16.2°C 53.5°F11.9°C 76% 8.4 mph ESE13.5 kmh ESE 17.2 mph27.7 kmh 30.04 in1017.3 mb 0.00 in0.0 mm 0.00 in0.0 mm 0.00 in0.0 mm
11:15 AM 61.7°F16.5°C 53.7°F12.1°C 75% 6.8 mph SE10.9 kmh SE 16.5 mph26.6 kmh 30.04 in1017.3 mb 0.00 in0.0 mm 0.00 in0.0 mm 0.00 in0.0 mm
11:30 AM 62.2°F16.8°C 53.8°F12.1°C 74% 7.0 mph SE11.3 kmh SE 14.0 mph22.5 kmh 30.04 in1017.3 mb 0.00 in0.0 mm 0.00 in0.0 mm 0.00 in0.0 mm
11:45 AM 63.3°F17.4°C 53.4°F11.9°C 70% 7.4 mph SE11.9 kmh SE 19.0 mph30.6 kmh 30.04 in1017.3 mb 0.00 in0.0 mm 0.00 in0.0 mm 0.00 in0.0 mm
12:00 PM 63.7°F17.6°C 53.3°F11.8°C 69% 7.3 mph SSE11.7 kmh SSE 13.6 mph21.9 kmh 30.04 in1017.3 mb 0.00 in0.0 mm 0.00 in0.0 mm 0.00 in0.0 mm
12:15 PM 64.0°F17.8°C 53.3°F11.8°C 68% 5.7 mph SSE9.2 kmh SSE 13.6 mph21.9 kmh 30.07 in1018.3 mb 0.00 in0.0 mm 0.00 in0.0 mm 0.00 in0.0 mm
12:30 PM 64.6°F18.1°C 53.4°F11.9°C 67% 7.8 mph SE12.6 kmh SE 14.7 mph23.7 kmh 30.07 in1018.3 mb 0.00 in0.0 mm 0.00 in0.0 mm 0.00 in0.0 mm
12:45 PM 64.9°F18.3°C 53.3°F11.8°C 66% 6.5 mph S10.5 kmh S 17.5 mph28.2 kmh 30.07 in1018.3 mb 0.00 in0.0 mm 0.00 in0.0 mm 0.00 in0.0 mm
01:00 PM 65.1°F18.4°C 53.1°F11.7°C 65% 5.8 mph S9.3 kmh S 13.6 mph21.9 kmh 30.07 in1018.3 mb 0.00 in0.0 mm 0.00 in0.0 mm 0.00 in0.0 mm
01:15 PM 65.3°F18.5°C 52.4°F11.3°C 63% 8.0 mph S12.9 kmh S 20.8 mph33.5 kmh 30.07 in1018.3 mb 0.00 in0.0 mm 0.00 in0.0 mm 0.00 in0.0 mm
01:30 PM 65.3°F18.5°C 52.4°F11.3°C 63% 5.3 mph S8.5 kmh S 12.2 mph19.6 kmh 30.07 in1018.3 mb 0.00 in0.0 mm 0.00 in0.0 mm 0.00 in0.0 mm
01:45 PM 65.3°F18.5°C 52.4°F11.3°C 63% 7.4 mph SSE11.9 kmh SSE 15.4 mph24.8 kmh 30.07 in1018.3 mb 0.00 in0.0 mm 0.00 in0.0 mm 0.00 in0.0 mm
02:00 PM 65.5°F18.6°C 52.1°F11.2°C 62% 6.5 mph SSE10.5 kmh SSE 16.1 mph25.9 kmh 30.04 in1017.3 mb 0.00 in0.0 mm 0.00 in0.0 mm 0.00 in0.0 mm
02:15 PM 65.7°F18.7°C 52.7°F11.5°C 63% 6.3 mph SSE10.1 kmh SSE 14.0 mph22.5 kmh 30.07 in1018.3 mb 0.00 in0.0 mm 0.00 in0.0 mm 0.00 in0.0 mm
02:30 PM 65.7°F18.7°C 52.7°F11.5°C 63% 6.5 mph SSE10.5 kmh SSE 20.4 mph32.8 kmh 30.07 in1018.3 mb 0.00 in0.0 mm 0.00 in0.0 mm 0.00 in0.0 mm
03:00 PM 65.5°F18.6°C 52.5°F11.4°C 63% 5.1 mph S8.2 kmh S 15.4 mph24.8 kmh 30.07 in1018.3 mb 0.00 in0.0 mm 0.00 in0.0 mm 0.00 in0.0 mm
03:15 PM 65.3°F18.5°C 51.9°F11.1°C 62% 4.7 mph S7.6 kmh S 12.2 mph19.6 kmh 30.07 in1018.3 mb 0.00 in0.0 mm 0.00 in0.0 mm 0.00 in0.0 mm
03:30 PM 64.9°F18.3°C 52.0°F11.1°C 63% 3.4 mph S5.5 kmh S 10.4 mph16.7 kmh 30.07 in1018.3 mb 0.00 in0.0 mm 0.00 in0.0 mm 0.00 in0.0 mm
03:45 PM 64.4°F18.0°C 51.5°F10.8°C 63% 5.1 mph S8.2 kmh S 15.7 mph25.3 kmh 30.07 in1018.3 mb 0.00 in0.0 mm 0.00 in0.0 mm 0.00 in0.0 mm
04:00 PM 63.9°F17.7°C 51.4°F10.8°C 64% 2.5 mph S4.0 kmh S 7.5 mph12.1 kmh 30.07 in1018.3 mb 0.00 in0.0 mm 0.00 in0.0 mm 0.00 in0.0 mm
04:15 PM 63.1°F17.3°C 50.8°F10.4°C 64% 2.4 mph S3.9 kmh S 10.4 mph16.7 kmh 30.07 in1018.3 mb 0.00 in0.0 mm 0.00 in0.0 mm 0.00 in0.0 mm
04:30 PM 62.4°F16.9°C 50.9°F10.5°C 66% 4.2 mph S6.8 kmh S 12.2 mph19.6 kmh 30.09 in1019.0 mb 0.00 in0.0 mm 0.00 in0.0 mm 0.00 in0.0 mm
04:45 PM 61.9°F16.6°C 50.8°F10.4°C 67% 3.9 mph S6.3 kmh S 12.2 mph19.6 kmh 30.09 in1019.0 mb 0.00 in0.0 mm 0.00 in0.0 mm 0.00 in0.0 mm
05:00 PM 61.2°F16.2°C 50.5°F10.3°C 68% 4.2 mph S6.8 kmh S 10.0 mph16.1 kmh 30.09 in1019.0 mb 0.00 in0.0 mm 0.00 in0.0 mm 0.00 in0.0 mm
05:15 PM 60.6°F15.9°C 50.4°F10.2°C 69% 4.7 mph S7.6 kmh S 12.9 mph20.8 kmh 30.12 in1020.0 mb 0.00 in0.0 mm 0.00 in0.0 mm 0.00 in0.0 mm
05:30 PM 60.3°F15.7°C 50.8°F10.4°C 71% 4.9 mph S7.9 kmh S 12.5 mph20.1 kmh 30.09 in1019.0 mb 0.00 in0.0 mm 0.00 in0.0 mm 0.00 in0.0 mm
05:45 PM 59.7°F15.4°C 50.7°F10.4°C 72% 4.7 mph S7.6 kmh S 13.6 mph21.9 kmh 30.07 in1018.3 mb 0.00 in0.0 mm 0.00 in0.0 mm 0.00 in0.0 mm
06:00 PM 59.4°F15.2°C 51.1°F10.6°C 74% 5.4 mph S8.7 kmh S 16.1 mph25.9 kmh 30.07 in1018.3 mb 0.00 in0.0 mm 0.00 in0.0 mm 0.00 in0.0 mm
06:15 PM 59.0°F15.0°C 51.1°F10.6°C 75% 4.8 mph SSE7.7 kmh SSE 12.5 mph20.1 kmh 30.09 in1019.0 mb 0.00 in0.0 mm 0.00 in0.0 mm 0.00 in0.0 mm
06:30 PM 59.0°F15.0°C 51.4°F10.8°C 76% 7.0 mph SSE11.3 kmh SSE 14.0 mph22.5 kmh 30.09 in1019.0 mb 0.00 in0.0 mm 0.00 in0.0 mm 0.00 in0.0 mm
06:45 PM 58.8°F14.9°C 51.3°F10.7°C 76% 6.8 mph SSE10.9 kmh SSE 12.2 mph19.6 kmh 30.09 in1019.0 mb 0.00 in0.0 mm 0.00 in0.0 mm 0.00 in0.0 mm
07:00 PM 58.6°F14.8°C 51.4°F10.8°C 77% 6.7 mph SSE10.8 kmh SSE 17.2 mph27.7 kmh 30.09 in1019.0 mb 0.00 in0.0 mm 0.00 in0.0 mm 0.00 in0.0 mm
07:15 PM 58.5°F14.7°C 51.3°F10.7°C 77% 7.3 mph S11.7 kmh S 17.2 mph27.7 kmh 30.09 in1019.0 mb 0.00 in0.0 mm 0.00 in0.0 mm 0.00 in0.0 mm
07:30 PM 58.5°F14.7°C 51.6°F10.9°C 78% 7.2 mph S11.6 kmh S 15.4 mph24.8 kmh 30.09 in1019.0 mb 0.00 in0.0 mm 0.00 in0.0 mm 0.00 in0.0 mm
07:45 PM 58.3°F14.6°C 51.1°F10.6°C 77% 6.4 mph SSE10.3 kmh SSE 12.9 mph20.8 kmh 30.07 in1018.3 mb 0.00 in0.0 mm 0.00 in0.0 mm 0.00 in0.0 mm
08:00 PM 57.9°F14.4°C 50.8°F10.4°C 77% 6.1 mph SSE9.8 kmh SSE 14.7 mph23.7 kmh 30.09 in1019.0 mb 0.00 in0.0 mm 0.00 in0.0 mm 0.00 in0.0 mm
08:15 PM 57.9°F14.4°C 51.1°F10.6°C 78% 7.4 mph S11.9 kmh S 16.1 mph25.9 kmh 30.09 in1019.0 mb 0.00 in0.0 mm 0.00 in0.0 mm 0.00 in0.0 mm
08:30 PM 57.7°F14.3°C 50.9°F10.5°C 78% 6.0 mph S9.7 kmh S 17.5 mph28.2 kmh 30.09 in1019.0 mb 0.00 in0.0 mm 0.00 in0.0 mm 0.00 in0.0 mm
08:45 PM 57.6°F14.2°C 50.8°F10.4°C 78% 6.4 mph SSE10.3 kmh SSE 17.9 mph28.8 kmh 30.12 in1020.0 mb 0.00 in0.0 mm 0.00 in0.0 mm 0.00 in0.0 mm
09:00 PM 57.6°F14.2°C 50.8°F10.4°C 78% 8.5 mph SE13.7 kmh SE 16.8 mph27.0 kmh 30.09 in1019.0 mb 0.00 in0.0 mm 0.00 in0.0 mm 0.00 in0.0 mm
09:15 PM 57.2°F14.0°C 50.4°F10.2°C 78% 6.5 mph SSE10.5 kmh SSE 20.0 mph32.2 kmh 30.09 in1019.0 mb 0.00 in0.0 mm 0.00 in0.0 mm 0.00 in0.0 mm
09:30 PM 57.2°F14.0°C 50.7°F10.4°C 79% 6.4 mph SSE10.3 kmh SSE 17.2 mph27.7 kmh 30.12 in1020.0 mb 0.00 in0.0 mm 0.00 in0.0 mm 0.00 in0.0 mm
09:45 PM 57.2°F14.0°C 50.7°F10.4°C 79% 6.8 mph S10.9 kmh S 16.5 mph26.6 kmh 30.12 in1020.0 mb 0.00 in0.0 mm 0.00 in0.0 mm 0.00 in0.0 mm
10:00 PM 57.2°F14.0°C 50.7°F10.4°C 79% 7.3 mph SSE11.7 kmh SSE 17.5 mph28.2 kmh 30.12 in1020.0 mb 0.00 in0.0 mm 0.00 in0.0 mm 0.00 in0.0 mm
10:15 PM 57.4°F14.1°C 50.9°F10.5°C 79% 7.0 mph SSE11.3 kmh SSE 16.1 mph25.9 kmh 30.12 in1020.0 mb 0.00 in0.0 mm 0.00 in0.0 mm 0.00 in0.0 mm
10:30 PM 57.4°F14.1°C 50.9°F10.5°C 79% 6.7 mph SE10.8 kmh SE 12.2 mph19.6 kmh 30.12 in1020.0 mb 0.00 in0.0 mm 0.00 in0.0 mm 0.00 in0.0 mm
11:00 PM 55.4°F13.0°C 49.0°F9.4°C 79% 7.5 mph SE12.1 kmh SE 10.4 mph16.7 kmh 30.09 in1019.0 mb 0.00 in0.0 mm 0.00 in0.0 mm 0.00 in0.0 mm
11:15 PM 54.9°F12.7°C 48.5°F9.2°C 79% 7.6 mph SE12.2 kmh SE 10.4 mph16.7 kmh 30.09 in1019.0 mb 0.00 in0.0 mm 0.00 in0.0 mm 0.00 in0.0 mm
11:30 PM 54.7°F12.6°C 48.6°F9.2°C 80% 7.5 mph SE12.1 kmh SE 12.2 mph19.6 kmh 30.09 in1019.0 mb 0.00 in0.0 mm 0.00 in0.0 mm 0.00 in0.0 mm
11:45 PM 54.5°F12.5°C 48.8°F9.3°C 81% 7.7 mph SE12.4 kmh SE 12.5 mph20.1 kmh 30.09 in1019.0 mb 0.00 in0.0 mm 0.00 in0.0 mm 0.00 in0.0 mm